Aviation Digital Data Service (ADDS)

Output produced by METARs form (0137 UTC 23 November 2017)
found at http://www.aviationweather.gov/adds/metars/
 
TAF FLMF 222200Z 2300/2406 12005KT CAVOK 
     BECMG 2308/2312 12010KT 9999 SCT030TCU 
     PROB30 
     TEMPO 2313/2315 9000 -SHRA